Home > Products > Valid Products > TAF

000
FTUS43 KFSD 140658 AAA
TAFFSD
TAF AMD
KFSD 140658Z 1407/1506 15014G24KT P6SM -SN BKN035
      TEMPO 1407/1409 3SM -SN
     FM140900 15014G21KT 3SM -SN OVC025
      TEMPO 1409/1411 2SM -SN
     FM141300 16012KT P6SM OVC020
     FM141800 19006KT P6SM BKN025
     FM150000 21006KT P6SM SCT015 BKN200=



000
FTUS43 KFSD 140520
TAFSUX
TAF
KSUX 140520Z 1406/1506 14015KT P6SM OVC040
     FM140900 14014G22KT 6SM -SN SCT025 OVC035
      TEMPO 1409/1412 3SM -SN BKN025
     FM141300 18012KT P6SM OVC020
     FM141800 25008KT P6SM BKN035
     FM142300 18006KT P6SM BKN080=



000
FTUS43 KFSD 140520
TAFFSD
TAF
KFSD 140520Z 1406/1506 15014G24KT 6SM -SN BKN025
      TEMPO 1406/1409 2SM -SN
     FM140900 15014G21KT 3SM -SN OVC025
      TEMPO 1409/1411 2SM -SN
     FM141300 16012KT P6SM OVC020
     FM141800 19006KT P6SM BKN025
     FM150000 21006KT P6SM SCT015 BKN200=



000
FTUS43 KFSD 140520
TAFHON
TAF
KHON 140520Z 1406/1506 16017G26KT 6SM -SN OVC035
     FM140700 16016G26KT 2SM -SN BLSN OVC025
      TEMPO 1407/1409 1 1/2SM -SN BKN015
     FM141000 16014KT 3SM -SN OVC020
     FM141200 18007KT P6SM OVC025
     FM142000 19006KT P6SM SCT250
     FM150300 27006KT P6SM BKN150=



000
FTUS43 KFSD 140520
TAFSUX
TAF
KSUX 140520Z 1406/1506 14015KT P6SM OVC040
     FM140900 14014G22KT 6SM -SN SCT025 OVC035
      TEMPO 1409/1412 3SM -SN BKN025
     FM141300 18012KT P6SM OVC020
     FM141800 25008KT P6SM BKN035
     FM142300 18006KT P6SM BKN080=



000
FTUS43 KFSD 140520
TAFHON
TAF
KHON 140520Z 1406/1506 16017G26KT 6SM -SN OVC035
     FM140700 16016G26KT 2SM -SN BLSN OVC025
      TEMPO 1407/1409 1 1/2SM -SN BKN015
     FM141000 16014KT 3SM -SN OVC020
     FM141200 18007KT P6SM OVC025
     FM142000 19006KT P6SM SCT250
     FM150300 27006KT P6SM BKN150=



000
FTUS43 KFSD 140520
TAFFSD
TAF
KFSD 140520Z 1406/1506 15014G24KT 6SM -SN BKN025
      TEMPO 1406/1409 2SM -SN
     FM140900 15014G21KT 3SM -SN OVC025
      TEMPO 1409/1411 2SM -SN
     FM141300 16012KT P6SM OVC020
     FM141800 19006KT P6SM BKN025
     FM150000 21006KT P6SM SCT015 BKN200=



000
FTUS43 KFSD 140520
TAFSUX
TAF
KSUX 140520Z 1406/1506 14015KT P6SM OVC040
     FM140900 14014G22KT 6SM -SN SCT025 OVC035
      TEMPO 1409/1412 3SM -SN BKN025
     FM141300 18012KT P6SM OVC020
     FM141800 25008KT P6SM BKN035
     FM142300 18006KT P6SM BKN080=



000
FTUS43 KFSD 140217 AAA
TAFHON
TAF AMD
KHON 140217Z 1402/1424 15020G29KT P6SM BKN012
     FM140500 15017G26KT 2SM -SN BLSN OVC015
     FM141100 16011KT 3SM -SN OVC020
     FM141400 21007KT P6SM OVC025
     FM141800 28009KT P6SM BKN025=



000
FTUS43 KFSD 140217 AAA
TAFHON
TAF AMD
KHON 140217Z 1402/1424 15020G29KT P6SM BKN012
     FM140500 15017G26KT 2SM -SN BLSN OVC015
     FM141100 16011KT 3SM -SN OVC020
     FM141400 21007KT P6SM OVC025
     FM141800 28009KT P6SM BKN025=



000
FTUS43 KFSD 140135 AAA
TAFFSD
TAF AMD
KFSD 140135Z 1402/1424 15016KT 2SM -SN OVC050
     FM140300 15018G26KT 3SM -SN BLSN OVC045
     FM140900 16016G25KT 1SM -SN BLSN OVC020
     FM141100 15014G21KT 3SM -SN OVC025
     FM141400 15008KT P6SM OVC020
     FM141800 21006KT P6SM OVC025
     FM142100 25008KT P6SM BKN025=



000
FTUS43 KFSD 132328
TAFSUX
TAF
KSUX 132328Z 1400/1424 14015G23KT P6SM -SN OVC035
     FM140600 14017G26KT P6SM -SN OVC025
     FM141300 17010KT P6SM OVC020
     FM141800 29008KT P6SM BKN035
     FM142300 26006KT P6SM BKN080=



000
FTUS43 KFSD 132328
TAFSUX
TAF
KSUX 132328Z 1400/1424 14015G23KT P6SM -SN OVC035
     FM140600 14017G26KT P6SM -SN OVC025
     FM141300 17010KT P6SM OVC020
     FM141800 29008KT P6SM BKN035
     FM142300 26006KT P6SM BKN080=



000
FTUS43 KFSD 132328
TAFFSD
TAF
KFSD 132328Z 1400/1424 15016KT P6SM OVC050
     FM140300 15018G26KT 3SM -SN BLSN OVC045
     FM140900 16016G25KT 1SM -SN BLSN OVC020
     FM141100 15014G21KT 3SM -SN OVC025
     FM141400 15008KT P6SM OVC020
     FM141800 21006KT P6SM OVC025
     FM142100 25008KT P6SM BKN025=



000
FTUS43 KFSD 132328
TAFHON
TAF
KHON 132328Z 1400/1424 15020G29KT P6SM OVC070
     FM140300 15018G26KT 3SM -SN BLSN OVC025
     FM140500 15017G26KT 1SM -SN BLSN OVC025
     FM141100 16011KT 3SM -SN OVC020
     FM141400 21007KT P6SM OVC025
     FM141800 28009KT P6SM BKN025=



000
FTUS43 KFSD 132328
TAFHON
TAF
KHON 132328Z 1400/1424 15020G29KT P6SM OVC070
     FM140300 15018G26KT 3SM -SN BLSN OVC025
     FM140500 15017G26KT 1SM -SN BLSN OVC025
     FM141100 16011KT 3SM -SN OVC020
     FM141400 21007KT P6SM OVC025
     FM141800 28009KT P6SM BKN025=



000
FTUS43 KFSD 132328
TAFFSD
TAF
KFSD 132328Z 1400/1424 15016KT P6SM OVC050
     FM140300 15018G26KT 3SM -SN BLSN OVC045
     FM140900 16016G25KT 1SM -SN BLSN OVC020
     FM141100 15014G21KT 3SM -SN OVC025
     FM141400 15008KT P6SM OVC020
     FM141800 21006KT P6SM OVC025
     FM142100 25008KT P6SM BKN025=



000
FTUS43 KFSD 132328
TAFSUX
TAF
KSUX 132328Z 1400/1424 14015G23KT P6SM -SN OVC035
     FM140600 14017G26KT P6SM -SN OVC025
     FM141300 17010KT P6SM OVC020
     FM141800 29008KT P6SM BKN035
     FM142300 26006KT P6SM BKN080=



000
FTUS43 KFSD 132225 AAB
TAFFSD
TAF AMD
KFSD 132225Z 1322/1418 15014G21KT P6SM OVC035
     FM140200 15018G27KT 2SM -SN OVC025
     FM140500 16019G28KT 3SM -SN BLSN OVC035
     FM140900 16016G25KT 3/4SM -SN BLSN OVC015
     FM141200 15012G18KT 2SM -SN OVC015
     FM141400 15008KT 5SM -SN OVC015=



000
FTUS43 KFSD 132225 AAB
TAFFSD
TAF AMD
KFSD 132225Z 1322/1418 15014G21KT P6SM OVC035
     FM140200 15018G27KT 2SM -SN OVC025
     FM140500 16019G28KT 3SM -SN BLSN OVC035
     FM140900 16016G25KT 3/4SM -SN BLSN OVC015
     FM141200 15012G18KT 2SM -SN OVC015
     FM141400 15008KT 5SM -SN OVC015=



000
FTUS43 KFSD 132221 AAA
TAFSUX
TAF AMD
KSUX 132221Z 1322/1418 14015KT P6SM OVC040
     FM132300 14016KT 3SM -SN OVC030
      TEMPO 1323/1324 2SM -SN OVC015
     FM140200 14015G25KT 6SM -SN OVC030
     FM140700 15017G25KT 2SM -SN BLSN OVC020
     FM141200 15015G24KT 4SM -SN OVC025
     FM141400 22006KT P6SM OVC025=



000
FTUS43 KFSD 132116 AAA
TAFFSD
TAF AMD
KFSD 132116Z 1321/1418 15016G23KT P6SM -SN OVC030
      TEMPO 1323/1401 2SM -SN
     FM140200 15018G27KT 2SM -SN OVC025
     FM140500 16019G28KT 3SM -SN BLSN OVC035
     FM140900 16016G25KT 3/4SM -SN BLSN OVC015
     FM141200 15012G18KT 2SM -SN OVC015
     FM141400 15008KT 5SM -SN OVC015=



000
FTUS43 KFSD 131729
TAFHON
TAF
KHON 131729Z 1318/1418 15016G25KT P6SM OVC030
      TEMPO 1323/1401 2SM -SN OVC020
     FM140100 15019G28KT 1SM -SN BLSN OVC015
     FM140900 16012G19KT 2SM -SN OVC015
     FM141300 18008KT 4SM -SN OVC015
     FM141500 23006KT P6SM OVC015=



000
FTUS43 KFSD 131729
TAFSUX
TAF
KSUX 131729Z 1318/1418 15010KT P6SM OVC050
     FM132100 15016G24KT P6SM OVC040
      TEMPO 1400/1403 6SM -SN OVC025
     FM140800 15017G25KT 2SM -SN BLSN OVC020
     FM141200 15015G24KT 4SM -SN OVC025
     FM141400 22006KT P6SM OVC025=



000
FTUS43 KFSD 131729
TAFFSD
TAF
KFSD 131729Z 1318/1418 15012G18KT P6SM OVC040
     FM132200 15016G25KT P6SM OVC030
      TEMPO 1323/1401 2SM -SN
     FM140200 15018G27KT 2SM -SN OVC025
     FM140500 16019G28KT 3SM -SN BLSN OVC035
     FM140900 16016G25KT 3/4SM -SN BLSN OVC015
     FM141200 15012G18KT 2SM -SN OVC015
     FM141400 15008KT 5SM -SN OVC015=



000
FTUS43 KFSD 131130
TAFSUX
TAF
KSUX 131130Z 1312/1412 12005KT P6SM OVC100
     FM131700 14009KT P6SM OVC060
     FM132100 15013KT P6SM OVC050
     FM140600 14017G26KT P6SM SN OVC040
     FM140800 15017G27KT 3SM -SN BLSN OVC035
     FM140900 15017G26KT 3SM -SN OVC035
     FM141000 15016G24KT P6SM VCSH OVC040=



000
FTUS43 KFSD 131130
TAFHON
TAF
KHON 131130Z 1312/1412 14010KT P6SM OVC080
     FM131600 14014G21KT P6SM OVC045
     FM132000 15017G24KT P6SM OVC030
     FM132300 15018G28KT 1SM -SN OVC040
     FM140100 15019G28KT 1SM -SN BLSN OVC025
     FM140900 15013G21KT 1 1/2SM -SN OVC010=



000
FTUS43 KFSD 131130
TAFFSD
TAF
KFSD 131130Z 1312/1412 12004KT P6SM BKN100
     FM131500 14008KT P6SM OVC070
     FM131800 15012KT P6SM OVC050
     FM132200 15015G25KT P6SM OVC045
     FM140100 16017G26KT 2SM -SN OVC025
     FM140600 16019G28KT 3/4SM -SN BLSN OVC035=



000
FTUS43 KFSD 131130
TAFSUX
TAF
KSUX 131130Z 1312/1412 12005KT P6SM OVC100
     FM131700 14009KT P6SM OVC060
     FM132100 15013KT P6SM OVC050
     FM140600 14017G26KT P6SM SN OVC040
     FM140800 15017G27KT 3SM -SN BLSN OVC035
     FM140900 15017G26KT 3SM -SN OVC035
     FM141000 15016G24KT P6SM VCSH OVC040=



000
FTUS43 KFSD 131130
TAFFSD
TAF
KFSD 131130Z 1312/1412 12004KT P6SM BKN100
     FM131500 14008KT P6SM OVC070
     FM131800 15012KT P6SM OVC050
     FM132200 15015G25KT P6SM OVC045
     FM140100 16017G26KT 2SM -SN OVC025
     FM140600 16019G28KT 3/4SM -SN BLSN OVC035=



000
FTUS43 KFSD 131130
TAFHON
TAF
KHON 131130Z 1312/1412 14010KT P6SM OVC080
     FM131600 14014G21KT P6SM OVC045
     FM132000 15017G24KT P6SM OVC030
     FM132300 15018G28KT 1SM -SN OVC040
     FM140100 15019G28KT 1SM -SN BLSN OVC025
     FM140900 15013G21KT 1 1/2SM -SN OVC010=



000
FTUS43 KFSD 131130
TAFSUX
TAF
KSUX 131130Z 1312/1412 12005KT P6SM OVC100
     FM131700 14009KT P6SM OVC060
     FM132100 15013KT P6SM OVC050
     FM140600 14017G26KT P6SM SN OVC040
     FM140800 15017G27KT 3SM -SN BLSN OVC035
     FM140900 15017G26KT 3SM -SN OVC035
     FM141000 15016G24KT P6SM VCSH OVC040=



000
FTUS43 KFSD 130635 RRA
TAFHON
TAF
KHON 130635Z 1307/1406 07005KT P6SM BKN200
     FM131100 13013KT P6SM OVC045
     FM131600 14013G20KT P6SM OVC030
     FM132000 16017G22KT 3SM -SN OVC015
     FM132300 14021G27KT 1 1/2SM -SN BLSN OVC015=



000
FTUS43 KFSD 130635 RRA
TAFSUX
TAF
KSUX 130635Z 1307/1406 VRB05KT P6SM SCT120 BKN200
     FM131200 11005KT P6SM OVC080
     FM131800 14013G19KT P6SM OVC050
     FM132200 16015G25KT P6SM OVC030
     FM140000 15017G27KT 3SM -SN BR OVC019
     FM140200 14020G30KT 1 1/2SM -SN BR OVC015=



000
FTUS43 KFSD 130635 RRA
TAFSUX
TAF
KSUX 130635Z 1307/1406 VRB05KT P6SM SCT120 BKN200
     FM131200 11005KT P6SM OVC080
     FM131800 14013G19KT P6SM OVC050
     FM132200 16015G25KT P6SM OVC030
     FM140000 15017G27KT 3SM -SN BR OVC019
     FM140200 14020G30KT 1 1/2SM -SN BR OVC015=



000
FTUS43 KFSD 130635 RRA
TAFHON
TAF
KHON 130635Z 1307/1406 07005KT P6SM BKN200
     FM131100 13013KT P6SM OVC045
     FM131600 14013G20KT P6SM OVC030
     FM132000 16017G22KT 3SM -SN OVC015
     FM132300 14021G27KT 1 1/2SM -SN BLSN OVC015=



000
FTUS43 KFSD 130635 RRA
TAFFSD
TAF
KFSD 130635Z 1307/1406 VRB05KT P6SM SCT120 BKN200
     FM131300 14008KT P6SM OVC050
     FM131800 15016G22KT P6SM OVC025
     FM132200 16017G27KT 3SM -SN BR OVC015
     FM140000 16022G30KT 1 1/2SM -SN BLSN OVC015=



000
FTUS43 KFSD 130635 RRA
TAFFSD
TAF
KFSD 130635Z 1307/1406 VRB05KT P6SM SCT120 BKN200
     FM131300 14008KT P6SM OVC050
     FM131800 15016G22KT P6SM OVC025
     FM132200 16017G27KT 3SM -SN BR OVC015
     FM140000 16022G30KT 1 1/2SM -SN BLSN OVC015=



000
FTUS43 KFSD 130635 RRA
TAFSUX
TAF
KSUX 130635Z 1307/1406 VRB05KT P6SM SCT120 BKN200
     FM131200 11005KT P6SM OVC080
     FM131800 14013G19KT P6SM OVC050
     FM132200 16015G25KT P6SM OVC030
     FM140000 15017G27KT 3SM -SN BR OVC019
     FM140200 14020G30KT 1 1/2SM -SN BR OVC015=



000
FTUS43 KFSD 122346
TAFSUX
TAF
KSUX 122346Z 1300/1324 34008KT P6SM SCT200
     FM130900 09005KT P6SM BKN120
     FM131200 11005KT P6SM OVC080
     FM131500 14009KT P6SM OVC050=



000
FTUS43 KFSD 122346
TAFHON
TAF
KHON 122346Z 1300/1324 36007KT P6SM SCT200
     FM130600 11005KT P6SM BKN200
     FM131300 13013KT P6SM OVC045
     FM131500 14014G21KT P6SM OVC030=



000
FTUS43 KFSD 122346
TAFFSD
TAF
KFSD 122346Z 1300/1324 36007KT P6SM FEW200
     FM130900 11004KT P6SM BKN120
     FM131500 14008KT P6SM OVC050=



000
FTUS43 KFSD 122346
TAFSUX
TAF
KSUX 122346Z 1300/1324 34008KT P6SM SCT200
     FM130900 09005KT P6SM BKN120
     FM131200 11005KT P6SM OVC080
     FM131500 14009KT P6SM OVC050=



000
FTUS43 KFSD 122346
TAFFSD
TAF
KFSD 122346Z 1300/1324 36007KT P6SM FEW200
     FM130900 11004KT P6SM BKN120
     FM131500 14008KT P6SM OVC050=



000
FTUS43 KFSD 122346
TAFSUX
TAF
KSUX 122346Z 1300/1324 34008KT P6SM SCT200
     FM130900 09005KT P6SM BKN120
     FM131200 11005KT P6SM OVC080
     FM131500 14009KT P6SM OVC050=



000
FTUS43 KFSD 122346
TAFHON
TAF
KHON 122346Z 1300/1324 36007KT P6SM SCT200
     FM130600 11005KT P6SM BKN200
     FM131300 13013KT P6SM OVC045
     FM131500 14014G21KT P6SM OVC030=



000
FTUS43 KFSD 121743 CCA
TAFSUX
TAF COR
KSUX 121743Z 1218/1318 36013G19KT P6SM SCT022 BKN070
      TEMPO 1218/1220 BKN022
     FM122000 36015KT P6SM SCT070
     FM122300 36008KT P6SM SCT200
     FM130900 09005KT P6SM BKN120
     FM131200 11005KT P6SM OVC080
     FM131500 14009KT P6SM OVC050=



000
FTUS43 KFSD 121735
TAFFSD
TAF
KFSD 121735Z 1218/1318 36015KT P6SM FEW250
     FM122300 36007KT P6SM FEW200
     FM130900 11004KT P6SM BKN120
     FM131500 14008KT P6SM OVC050=



000
FTUS43 KFSD 121735
TAFSUX
TAF
KSUX 121735Z 1218/1318 36013G19KT P6SM SCT025 BKN070
     FM122000 36015KT P6SM SCT070
     FM122300 36008KT P6SM SCT200
     FM130900 09005KT P6SM BKN120
     FM131200 11005KT P6SM OVC080
     FM131500 14009KT P6SM OVC050=



000
FTUS43 KFSD 121735
TAFHON
TAF
KHON 121735Z 1218/1318 36013KT P6SM SCT019
      TEMPO 1218/1219 BKN019
     FM122300 36007KT P6SM SCT200
     FM130600 11005KT P6SM BKN200
     FM131300 13013KT P6SM OVC045
     FM131500 14014G21KT P6SM OVC030=



000
FTUS43 KFSD 121530 AAB
TAFFSD
TAF AMD
KFSD 121530Z 1216/1312 35012KT P6SM SCT012 SCT090
     FM121700 35013G20KT P6SM FEW250
     FM130000 36009KT P6SM SCT250
     FM130200 01005KT P6SM SCT250
     FM131100 11004KT P6SM BKN150=



000
FTUS43 KFSD 121315 AAA
TAFHON
TAF AMD
KHON 121315Z 1213/1312 35010KT P6SM SCT022 BKN035
      TEMPO 1214/1216 BKN022
     FM121600 35011KT P6SM SCT080
     FM130000 02008KT P6SM SCT200
     FM130200 05006KT P6SM SCT200
     FM130600 11005KT P6SM BKN140=



000
FTUS43 KFSD 121131
TAFSUX
TAF
KSUX 121131Z 1212/1312 34010KT P6SM BKN060
      TEMPO 1212/1214 BKN020
     FM121600 34012G17KT P6SM SCT140
     FM130100 01008KT P6SM SCT250
     FM130500 03004KT P6SM SCT250
     FM130700 05004KT P6SM BKN150=



000
FTUS43 KFSD 121131
TAFFSD
TAF
KFSD 121131Z 1212/1312 35009KT P6SM BKN080
     FM121400 35009KT P6SM SCT140
     FM121700 35013G20KT P6SM FEW250
     FM130000 36009KT P6SM SCT250
     FM130200 01005KT P6SM SCT250
     FM131100 11004KT P6SM BKN150=



000
FTUS43 KFSD 121131
TAFSUX
TAF
KSUX 121131Z 1212/1312 34010KT P6SM BKN060
      TEMPO 1212/1214 BKN020
     FM121600 34012G17KT P6SM SCT140
     FM130100 01008KT P6SM SCT250
     FM130500 03004KT P6SM SCT250
     FM130700 05004KT P6SM BKN150=



000
FTUS43 KFSD 121131
TAFHON
TAF
KHON 121131Z 1212/1312 35009KT P6SM SCT030 BKN090
     FM121500 35011KT P6SM SCT080
     FM130000 02008KT P6SM SCT200
     FM130200 05006KT P6SM SCT200
     FM130600 11005KT P6SM BKN140=



000
FTUS43 KFSD 121131
TAFHON
TAF
KHON 121131Z 1212/1312 35009KT P6SM SCT030 BKN090
     FM121500 35011KT P6SM SCT080
     FM130000 02008KT P6SM SCT200
     FM130200 05006KT P6SM SCT200
     FM130600 11005KT P6SM BKN140=



000
FTUS43 KFSD 121131
TAFSUX
TAF
KSUX 121131Z 1212/1312 34010KT P6SM BKN060
      TEMPO 1212/1214 BKN020
     FM121600 34012G17KT P6SM SCT140
     FM130100 01008KT P6SM SCT250
     FM130500 03004KT P6SM SCT250
     FM130700 05004KT P6SM BKN150=



000
FTUS43 KFSD 121131
TAFFSD
TAF
KFSD 121131Z 1212/1312 35009KT P6SM BKN080
     FM121400 35009KT P6SM SCT140
     FM121700 35013G20KT P6SM FEW250
     FM130000 36009KT P6SM SCT250
     FM130200 01005KT P6SM SCT250
     FM131100 11004KT P6SM BKN150=



000
FTUS43 KFSD 120540
TAFHON
TAF
KHON 120540Z 1206/1306 35005KT P6SM BKN015 OVC035
     FM121000 35012KT P6SM SCT025 BKN050
     FM121400 35012G18KT P6SM SCT050 SCT200
     FM121800 35012KT P6SM SCT020 BKN200
     FM130000 04006KT P6SM BKN150=



000
FTUS43 KFSD 120540
TAFSUX
TAF
KSUX 120540Z 1206/1306 12007KT P6SM SCT015 OVC025
     FM120800 34007KT P6SM BKN015
     FM121200 35012KT P6SM SCT025 BKN050
     FM121400 35012G18KT P6SM SCT050 SCT200
     FM121800 35012G22KT P6SM SCT020 BKN200
     FM130000 01006KT P6SM BKN150=



000
FTUS43 KFSD 120540
TAFSUX
TAF
KSUX 120540Z 1206/1306 12007KT P6SM SCT015 OVC025
     FM120800 34007KT P6SM BKN015
     FM121200 35012KT P6SM SCT025 BKN050
     FM121400 35012G18KT P6SM SCT050 SCT200
     FM121800 35012G22KT P6SM SCT020 BKN200
     FM130000 01006KT P6SM BKN150=



000
FTUS43 KFSD 120540
TAFFSD
TAF
KFSD 120540Z 1206/1306 33006KT P6SM BKN015
     FM121000 35012KT P6SM SCT025 BKN050
     FM121400 35012G18KT P6SM SCT050 SCT200
     FM121800 35012G21KT P6SM SCT020 BKN200
     FM130000 01006KT P6SM BKN150=



000
FTUS43 KFSD 120540
TAFSUX
TAF
KSUX 120540Z 1206/1306 12007KT P6SM SCT015 OVC025
     FM120800 34007KT P6SM BKN015
     FM121200 35012KT P6SM SCT025 BKN050
     FM121400 35012G18KT P6SM SCT050 SCT200
     FM121800 35012G22KT P6SM SCT020 BKN200
     FM130000 01006KT P6SM BKN150=



000
FTUS43 KFSD 120540
TAFHON
TAF
KHON 120540Z 1206/1306 35005KT P6SM BKN015 OVC035
     FM121000 35012KT P6SM SCT025 BKN050
     FM121400 35012G18KT P6SM SCT050 SCT200
     FM121800 35012KT P6SM SCT020 BKN200
     FM130000 04006KT P6SM BKN150=



000
FTUS43 KFSD 120540
TAFFSD
TAF
KFSD 120540Z 1206/1306 33006KT P6SM BKN015
     FM121000 35012KT P6SM SCT025 BKN050
     FM121400 35012G18KT P6SM SCT050 SCT200
     FM121800 35012G21KT P6SM SCT020 BKN200
     FM130000 01006KT P6SM BKN150=



000
FTUS43 KFSD 120213 AAB
TAFFSD
TAF AMD
KFSD 120213Z 1202/1224 16010KT P6SM -SN SCT015 SCT040
     FM120330 VRB03KT P6SM SCT040 OVC100
     FM120600 33006KT P6SM OVC015
     FM121200 35012KT P6SM SCT060
     FM121600 35012G18KT P6SM SCT200=



000
FTUS43 KFSD 120059 AAA
TAFHON
TAF AMD
KHON 120059Z 1201/1224 09006KT P6SM BKN008 BKN035
     FM120200 35005KT P6SM OVC015
     FM121200 35012KT P6SM BKN035
     FM121500 35012G18KT P6SM SCT200=



000
FTUS43 KFSD 120059 AAA
TAFHON
TAF AMD
KHON 120059Z 1201/1224 09006KT P6SM BKN008 BKN035
     FM120200 35005KT P6SM OVC015
     FM121200 35012KT P6SM BKN035
     FM121500 35012G18KT P6SM SCT200=



000
FTUS43 KFSD 120058 AAA
TAFSUX
TAF AMD
KSUX 120058Z 1201/1224 12007KT 2SM -SN BKN018
     FM120300 12007KT P6SM SCT008 OVC015
     FM121400 35012KT P6SM SCT060
     FM121800 35012G18KT P6SM SCT200=



000
FTUS43 KFSD 120058 AAA
TAFSUX
TAF AMD
KSUX 120058Z 1201/1224 12007KT 2SM -SN BKN018
     FM120300 12007KT P6SM SCT008 OVC015
     FM121400 35012KT P6SM SCT060
     FM121800 35012G18KT P6SM SCT200=



000
FTUS43 KFSD 120058 AAA
TAFSUX
TAF AMD
KSUX 120058Z 1201/1224 12007KT 2SM -SN BKN018
     FM120300 12007KT P6SM SCT008 OVC015
     FM121400 35012KT P6SM SCT060
     FM121800 35012G18KT P6SM SCT200=



000
FTUS43 KFSD 112320
TAFSUX
TAF
KSUX 112320Z 1200/1224 15010KT 4SM -SN BKN018
     FM120300 12007KT P6SM SCT008 OVC015
     FM121400 35012KT P6SM SCT060
     FM121800 35012G18KT P6SM SCT200=



000
FTUS43 KFSD 112320
TAFSUX
TAF
KSUX 112320Z 1200/1224 15010KT 4SM -SN BKN018
     FM120300 12007KT P6SM SCT008 OVC015
     FM121400 35012KT P6SM SCT060
     FM121800 35012G18KT P6SM SCT200=



000
FTUS43 KFSD 112320
TAFHON
TAF
KHON 112320Z 1200/1224 09006KT 5SM -SN BR SCT010 BKN035
     FM120200 35005KT P6SM OVC015
     FM121200 35012KT P6SM BKN035
     FM121500 35012G18KT P6SM SCT200=



000
FTUS43 KFSD 112320
TAFFSD
TAF
KFSD 112320Z 1200/1224 16010KT 3SM -SN SCT015 OVC035
     FM120300 VRB03KT P6SM OVC015
     FM120600 33006KT P6SM OVC015
     FM121200 35012KT P6SM SCT060
     FM121600 35012G18KT P6SM SCT200=



000
FTUS43 KFSD 112320
TAFSUX
TAF
KSUX 112320Z 1200/1224 15010KT 4SM -SN BKN018
     FM120300 12007KT P6SM SCT008 OVC015
     FM121400 35012KT P6SM SCT060
     FM121800 35012G18KT P6SM SCT200=



000
FTUS43 KFSD 112320
TAFHON
TAF
KHON 112320Z 1200/1224 09006KT 5SM -SN BR SCT010 BKN035
     FM120200 35005KT P6SM OVC015
     FM121200 35012KT P6SM BKN035
     FM121500 35012G18KT P6SM SCT200=



000
FTUS43 KFSD 112320
TAFFSD
TAF
KFSD 112320Z 1200/1224 16010KT 3SM -SN SCT015 OVC035
     FM120300 VRB03KT P6SM OVC015
     FM120600 33006KT P6SM OVC015
     FM121200 35012KT P6SM SCT060
     FM121600 35012G18KT P6SM SCT200=



000
FTUS43 KFSD 112241 AAB
TAFHON
TAF AMD
KHON 112241Z 1123/1218 11010KT 3SM -SN SCT010 OVC025
     FM120000 09006KT P6SM OVC012
     FM120300 35005KT P6SM OVC015
     FM120900 35012KT P6SM BKN035
     FM121500 35012G18KT P6SM SKC=



000
FTUS43 KFSD 112241 AAB
TAFHON
TAF AMD
KHON 112241Z 1123/1218 11010KT 3SM -SN SCT010 OVC025
     FM120000 09006KT P6SM OVC012
     FM120300 35005KT P6SM OVC015
     FM120900 35012KT P6SM BKN035
     FM121500 35012G18KT P6SM SKC=



000
FTUS43 KFSD 112119 AAB
TAFFSD
TAF AMD
KFSD 112119Z 1121/1218 16010KT 2SM -SN SCT015 OVC025
     FM120200 VRB03KT P6SM OVC018
     FM120600 33006KT P6SM OVC025
     FM121200 36012KT P6SM SCT060
     FM121600 36012G18KT P6SM SKC=



000
FTUS43 KFSD 112057 AAA
TAFSUX
TAF AMD
KSUX 112057Z 1121/1218 16012KT 6SM -SN OVC035
      TEMPO 1121/1123 3SM -SN BKN025
     FM112300 15010KT 2SM -SN OVC030
     FM120300 12007KT P6SM OVC010
     FM120700 34006KT P6SM OVC008
     FM121500 35013KT P6SM SCT100=



000
FTUS43 KFSD 112057 AAA
TAFSUX
TAF AMD
KSUX 112057Z 1121/1218 16012KT 6SM -SN OVC035
      TEMPO 1121/1123 3SM -SN BKN025
     FM112300 15010KT 2SM -SN OVC030
     FM120300 12007KT P6SM OVC010
     FM120700 34006KT P6SM OVC008
     FM121500 35013KT P6SM SCT100=



000
FTUS43 KFSD 112057 AAA
TAFSUX
TAF AMD
KSUX 112057Z 1121/1218 16012KT 6SM -SN OVC035
      TEMPO 1121/1123 3SM -SN BKN025
     FM112300 15010KT 2SM -SN OVC030
     FM120300 12007KT P6SM OVC010
     FM120700 34006KT P6SM OVC008
     FM121500 35013KT P6SM SCT100=



000
FTUS43 KFSD 112055 AAA
TAFHON
TAF AMD
KHON 112055Z 1121/1218 16010KT 1 1/2SM -SN BKN025
      TEMPO 1121/1123 3SM -SN SCT025 OVC040
     FM120000 09006KT P6SM OVC012
     FM120300 35005KT P6SM OVC015
     FM120900 35012KT P6SM BKN035
     FM121500 35012G18KT P6SM SKC=



000
FTUS43 KFSD 112001 AAB
TAFFSD
TAF AMD
KFSD 112001Z 1120/1218 16011KT 1 1/2SM -SN OVC015
      TEMPO 1120/1121 3/4SM -SN
     FM120200 VRB03KT P6SM OVC010
     FM120600 33006KT P6SM OVC010
     FM121200 36012KT P6SM SCT060
     FM121600 36012G18KT P6SM SKC=



000
FTUS43 KFSD 112001 AAB
TAFFSD
TAF AMD
KFSD 112001Z 1120/1218 16011KT 1 1/2SM -SN OVC015
      TEMPO 1120/1121 3/4SM -SN
     FM120200 VRB03KT P6SM OVC010
     FM120600 33006KT P6SM OVC010
     FM121200 36012KT P6SM SCT060
     FM121600 36012G18KT P6SM SKC=



000
FTUS43 KFSD 111905 AAA
TAFFSD
TAF AMD
KFSD 111905Z 1119/1218 17009KT 2SM -SN BKN018
     FM112000 16011KT 1 1/2SM -SN OVC015
     FM120200 VRB03KT P6SM OVC010
     FM120600 33006KT P6SM OVC010
     FM121200 36012KT P6SM SCT060
     FM121600 36012G18KT P6SM SKC=



000
FTUS43 KFSD 111733
TAFFSD
TAF
KFSD 111733Z 1118/1218 17009KT P6SM BKN018
      TEMPO 1118/1119 SCT018 OVC030
     FM111930 17011KT 3SM -SN OVC025
     FM112000 16011KT 2SM -SN OVC015
     FM120200 VRB03KT P6SM OVC010
     FM120600 33006KT P6SM OVC010
     FM121200 36012KT P6SM SCT060
     FM121600 36012G18KT P6SM SKC=



000
FTUS43 KFSD 111733
TAFHON
TAF
KHON 111733Z 1118/1218 16010KT 6SM -SN SCT015 OVC060
      TEMPO 1118/1119 3SM -SN BKN015
     FM111900 16010KT 2SM -SN SCT015 OVC025
     FM120000 09006KT P6SM OVC012
     FM120300 35005KT P6SM OVC015
     FM120900 35012KT P6SM BKN035
     FM121500 35012G18KT P6SM SKC=



000
FTUS43 KFSD 111733
TAFSUX
TAF
KSUX 111733Z 1118/1218 16011KT P6SM OVC030
     FM112000 16010KT 3SM -SN OVC025
     FM112030 16012KT 2SM -SN OVC015
     FM120300 12007KT P6SM OVC010
     FM120700 34006KT P6SM OVC008
     FM121500 35013KT P6SM SCT100=



000
FTUS43 KFSD 111639 AAB
TAFSUX
TAF AMD
KSUX 111639Z 1117/1212 15011KT P6SM SCT022 OVC035
      TEMPO 1117/1119 BKN022
     FM111930 16010KT 2SM -SN BR OVC015
     FM120000 11007KT 2SM -SN BR OVC015
     FM120300 05006KT P6SM OVC012
     FM120700 35009KT P6SM OVC015
     FM121000 35013KT P6SM OVC025=



000
FTUS43 KFSD 111637 AAB
TAFFSD
TAF AMD
KFSD 111637Z 1117/1212 16008KT P6SM -SN OVC022
     FM111900 17010KT 1 1/2SM -SN BR OVC015
     FM112300 10007KT 2SM -SN OVC015
     FM120100 07005KT P6SM OVC012
     FM120300 33005KT P6SM OVC025
     FM120900 35013KT P6SM SCT015 BKN080=



000
FTUS43 KFSD 111637 AAB
TAFFSD
TAF AMD
KFSD 111637Z 1117/1212 16008KT P6SM -SN OVC022
     FM111900 17010KT 1 1/2SM -SN BR OVC015
     FM112300 10007KT 2SM -SN OVC015
     FM120100 07005KT P6SM OVC012
     FM120300 33005KT P6SM OVC025
     FM120900 35013KT P6SM SCT015 BKN080=



000
FTUS43 KFSD 111635 AAA
TAFHON
TAF AMD
KHON 111635Z 1117/1212 15011KT 6SM -SN BR SCT015 OVC060
      TEMPO 1117/1118 3SM -SN BKN015
     FM111800 15011KT 2SM -SN OVC015
     FM112100 11007KT 5SM -SN OVC015
     FM112300 10005KT P6SM OVC015
     FM120300 33005KT P6SM OVC025
     FM120900 36015KT P6SM SCT020 BKN080=



000
FTUS43 KFSD 111502 AAA
TAFSUX
TAF AMD
KSUX 111502Z 1115/1212 12007KT P6SM BKN025
     FM111800 14009KT P6SM -SN OVC025
     FM111930 16010KT 2SM -SN BR OVC009
     FM120000 11007KT 5SM -SN BR OVC015
     FM120300 05006KT P6SM OVC012
     FM120700 35009KT P6SM OVC015
     FM121000 35013KT P6SM OVC025=



000
FTUS43 KFSD 111140
TAFFSD
TAF
KFSD 111140Z 1112/1212 14005KT P6SM OVC025
     FM111700 14008KT P6SM -SN OVC015
     FM111900 17010KT 2SM -SN BR OVC008
     FM112300 10007KT 5SM -SN OVC015
     FM120100 07005KT P6SM OVC012
     FM120300 33005KT P6SM OVC025
     FM120900 35013KT P6SM SCT015 BKN080=



000
FTUS43 KFSD 111140
TAFHON
TAF
KHON 111140Z 1112/1212 15006KT P6SM OVC025
     FM111500 15008KT P6SM -SN OVC012
     FM111700 14011KT 2SM -SN BR OVC007
     FM112100 11007KT 5SM -SN OVC015
     FM112300 10005KT P6SM OVC015
     FM120300 33005KT P6SM OVC025
     FM120900 36015KT P6SM SCT020 BKN080=



000
FTUS43 KFSD 111140
TAFFSD
TAF
KFSD 111140Z 1112/1212 14005KT P6SM OVC025
     FM111700 14008KT P6SM -SN OVC015
     FM111900 17010KT 2SM -SN BR OVC008
     FM112300 10007KT 5SM -SN OVC015
     FM120100 07005KT P6SM OVC012
     FM120300 33005KT P6SM OVC025
     FM120900 35013KT P6SM SCT015 BKN080=



000
FTUS43 KFSD 111140
TAFHON
TAF
KHON 111140Z 1112/1212 15006KT P6SM OVC025
     FM111500 15008KT P6SM -SN OVC012
     FM111700 14011KT 2SM -SN BR OVC007
     FM112100 11007KT 5SM -SN OVC015
     FM112300 10005KT P6SM OVC015
     FM120300 33005KT P6SM OVC025
     FM120900 36015KT P6SM SCT020 BKN080=



000
FTUS43 KFSD 111140
TAFSUX
TAF
KSUX 111140Z 1112/1212 11005KT P6SM OVC035
     FM111800 14009KT P6SM -SN OVC025
     FM111930 16010KT 2SM -SN BR OVC009
     FM120000 11007KT 5SM -SN BR OVC015
     FM120300 05006KT P6SM OVC012
     FM120700 35009KT P6SM OVC015
     FM121000 35013KT P6SM OVC025=



000
FTUS43 KFSD 111140
TAFSUX
TAF
KSUX 111140Z 1112/1212 11005KT P6SM OVC035
     FM111800 14009KT P6SM -SN OVC025
     FM111930 16010KT 2SM -SN BR OVC009
     FM120000 11007KT 5SM -SN BR OVC015
     FM120300 05006KT P6SM OVC012
     FM120700 35009KT P6SM OVC015
     FM121000 35013KT P6SM OVC025=



000
FTUS43 KFSD 111140
TAFSUX
TAF
KSUX 111140Z 1112/1212 11005KT P6SM OVC035
     FM111800 14009KT P6SM -SN OVC025
     FM111930 16010KT 2SM -SN BR OVC009
     FM120000 11007KT 5SM -SN BR OVC015
     FM120300 05006KT P6SM OVC012
     FM120700 35009KT P6SM OVC015
     FM121000 35013KT P6SM OVC025=



000
FTUS43 KFSD 110946 AAB
TAFFSD
TAF AMD
KFSD 110946Z 1110/1206 11005KT P6SM OVC030
     FM111700 14008KT P6SM -SN OVC015
     FM111900 17010KT 2SM -SN BR OVC008
     FM112300 10007KT P6SM OVC015
     FM120300 33005KT P6SM OVC025=



000
FTUS43 KFSD 110917 AAA
TAFSUX
TAF AMD
KSUX 110917Z 1109/1206 06006KT P6SM OVC035
     FM111100 09005KT P6SM OVC028
     FM111800 14004KT P6SM -SN OVC015
     FM112000 17010KT 2SM -SN BR OVC012
     FM112300 10007KT P6SM OVC015
     FM120300 33005KT P6SM OVC025=



000
FTUS43 KFSD 110916 AAA
TAFFSD
TAF AMD
KFSD 110916Z 1109/1206 09005KT P6SM OVC016
     FM111100 13006KT P6SM OVC015
     FM111700 14008KT P6SM -SN OVC015
     FM111900 17010KT 2SM -SN BR OVC008
     FM112300 10007KT P6SM OVC015
     FM120300 33005KT P6SM OVC025=



    US Dept of Commerce
    National Oceanic and Atmospheric Administration
    National Weather Service
    1325 East West Highway
    Silver Spring, MD 20910
    Page Author: NWS Internet Services Team
Disclaimer
Information Quality
Credits
Glossary
Privacy Policy
Freedom of Information Act (FOIA)
About Us
Career Opportunities